Time;durP1;ratioP1;P1;durP2;ratioP2;P2;SDS_P1;SDS_P2;PMS_P1;PMS_P2;Temp;Humidity;BMP_temperature;BMP_pressure;BME280_temperature;BME280_humidity;BME280_pressure;Samples;Min_cycle;Max_cycle;Signal;HPM_P1;HPM_P2
2021/06/17 00:00:47;;;;;;;5.05;2.20;;;21.50;46.70;;;;;;5092019;28;20384;-80
2021/06/17 00:03:12;;;;;;;5.18;2.53;;;21.50;47.00;;;;;;5093502;28;20024;-81
2021/06/17 00:05:38;;;;;;;4.80;1.73;;;21.40;47.10;;;;;;5092112;28;20047;-81
2021/06/17 00:08:06;;;;;;;3.13;1.92;;;21.30;47.10;;;;;;5092290;28;20024;-81
2021/06/17 00:10:35;;;;;;;3.05;1.73;;;21.30;47.20;;;;;;5093726;28;20012;-80
2021/06/17 00:13:04;;;;;;;3.13;1.95;;;21.30;47.40;;;;;;5094672;28;20077;-81
2021/06/17 00:15:31;;;;;;;4.88;2.10;;;21.30;48.50;;;;;;5094361;28;20016;-81
2021/06/17 00:17:58;;;;;;;4.72;1.88;;;21.20;47.50;;;;;;5117564;28;20035;-80
2021/06/17 00:20:24;;;;;;;4.97;2.63;;;21.20;47.70;;;;;;5110363;28;20025;-81
2021/06/17 00:22:50;;;;;;;5.55;2.00;;;21.20;47.50;;;;;;5093303;28;20026;-80
2021/06/17 00:25:17;;;;;;;5.90;1.92;;;21.20;47.50;;;;;;5093131;28;20467;-80
2021/06/17 00:27:43;;;;;;;3.92;2.10;;;21.10;47.30;;;;;;5093015;28;20028;-79
2021/06/17 00:30:10;;;;;;;6.97;2.38;;;21.20;47.40;;;;;;5093142;28;20479;-79
2021/06/17 00:32:36;;;;;;;5.47;2.03;;;21.10;47.50;;;;;;5092001;28;20024;-79
2021/06/17 00:35:03;;;;;;;3.58;1.90;;;21.00;47.70;;;;;;5093078;28;20038;-79
2021/06/17 00:37:29;;;;;;;5.45;2.00;;;21.00;48.10;;;;;;5091710;28;20025;-79
2021/06/17 00:39:54;;;;;;;3.05;2.03;;;20.90;48.00;;;;;;5093205;28;20020;-78
2021/06/17 00:42:20;;;;;;;4.38;2.03;;;21.00;48.30;;;;;;5091626;28;20380;-78
2021/06/17 00:44:45;;;;;;;10.82;2.47;;;20.90;48.50;;;;;;5093774;28;20525;-78
2021/06/17 00:47:11;;;;;;;4.65;2.17;;;20.90;48.60;;;;;;5092897;28;20084;-79
2021/06/17 00:49:36;;;;;;;5.90;2.53;;;20.70;48.90;;;;;;5092952;28;20024;-79
2021/06/17 00:52:06;;;;;;;9.82;2.25;;;20.80;48.80;;;;;;5092890;28;20035;-79
2021/06/17 00:54:32;;;;;;;2.95;2.00;;;20.80;48.90;;;;;;5093002;28;20484;-79
2021/06/17 00:57:00;;;;;;;2.70;2.10;;;20.70;49.00;;;;;;5092824;28;20032;-79
2021/06/17 00:59:26;;;;;;;3.92;2.22;;;20.80;48.90;;;;;;5092867;28;20055;-80
2021/06/17 01:01:52;;;;;;;4.40;2.10;;;20.70;49.00;;;;;;5092917;28;20027;-81
2021/06/17 01:04:17;;;;;;;3.75;2.30;;;20.70;48.80;;;;;;5092995;28;20484;-79
2021/06/17 01:06:43;;;;;;;4.10;2.40;;;20.80;48.80;;;;;;5092753;28;20031;-81
2021/06/17 01:09:17;;;;;;;4.97;2.00;;;20.80;48.80;;;;;;5092198;28;20050;-79
2021/06/17 01:12:02;;;;;;;8.23;2.38;;;20.80;48.90;;;;;;5092394;28;20027;-79
2021/06/17 01:14:37;;;;;;;2.70;2.30;;;20.80;48.80;;;;;;5092278;28;20070;-79
2021/06/17 01:17:05;;;;;;;4.85;2.00;;;20.90;49.20;;;;;;5092918;28;20023;-79
2021/06/17 01:19:30;;;;;;;4.97;2.25;;;20.80;48.50;;;;;;5092710;28;20028;-79
2021/06/17 01:22:09;;;;;;;7.70;2.45;;;20.80;48.80;;;;;;5091500;28;20020;-79
2021/06/17 01:24:53;;;;;;;6.95;2.28;;;20.80;48.90;;;;;;5092771;28;20021;-79
2021/06/17 01:27:56;;;;;;;2.45;2.00;;;20.80;48.90;;;;;;5092360;28;20066;-79
2021/06/17 01:30:24;;;;;;;4.97;2.20;;;20.80;48.90;;;;;;5092518;28;20028;-79
2021/06/17 01:33:00;;;;;;;3.63;1.90;;;20.80;49.30;;;;;;5092700;28;20020;-79
2021/06/17 01:35:27;;;;;;;3.92;2.38;;;20.80;49.10;;;;;;5092591;28;20020;-79
2021/06/17 01:37:57;;;;;;;5.05;2.35;;;20.80;48.90;;;;;;5092547;28;20017;-79
2021/06/17 01:40:25;;;;;;;4.50;2.10;;;20.80;49.20;;;;;;5094294;28;20567;-79
2021/06/17 01:42:51;;;;;;;4.10;2.10;;;20.90;48.70;;;;;;5095598;28;20480;-79
2021/06/17 01:45:17;;;;;;;4.50;2.53;;;20.90;48.70;;;;;;5096024;28;20028;-79
2021/06/17 01:47:46;;;;;;;3.72;2.00;;;20.90;48.40;;;;;;5094811;28;20401;-79
2021/06/17 01:50:13;;;;;;;2.78;1.77;;;20.90;47.90;;;;;;5096013;28;20020;-79
2021/06/17 01:52:40;;;;;;;5.63;2.45;;;20.80;48.10;;;;;;5095794;28;20024;-79
2021/06/17 01:55:07;;;;;;;3.95;2.10;;;20.70;48.10;;;;;;5095762;28;20020;-79
2021/06/17 01:57:34;;;;;;;7.20;2.20;;;20.60;48.20;;;;;;5095770;28;20084;-79
2021/06/17 02:00:01;;;;;;;4.72;2.20;;;20.50;48.70;;;;;;5095498;28;20465;-80
2021/06/17 02:02:29;;;;;;;3.78;2.00;;;20.50;48.90;;;;;;5095800;28;20032;-79
2021/06/17 02:04:55;;;;;;;10.88;2.50;;;20.50;49.20;;;;;;5094562;28;20077;-79
2021/06/17 02:07:22;;;;;;;5.40;2.30;;;20.40;48.80;;;;;;5095855;28;20045;-79
2021/06/17 02:09:50;;;;;;;4.32;2.42;;;20.40;48.90;;;;;;5095188;28;20027;-79
2021/06/17 02:12:16;;;;;;;4.10;1.92;;;20.40;48.80;;;;;;5095283;28;20061;-80
2021/06/17 02:14:42;;;;;;;5.63;2.33;;;20.40;48.50;;;;;;5095139;28;20123;-80
2021/06/17 02:17:09;;;;;;;3.03;2.05;;;20.50;49.00;;;;;;5093853;28;20024;-80
2021/06/17 02:19:37;;;;;;;4.85;2.10;;;20.60;48.40;;;;;;5093688;28;20030;-80
2021/06/17 02:22:05;;;;;;;4.13;2.05;;;20.60;48.00;;;;;;5094868;28;20031;-80
2021/06/17 02:24:35;;;;;;;5.57;2.20;;;20.60;48.10;;;;;;5094804;28;20070;-81
2021/06/17 02:27:08;;;;;;;3.97;2.30;;;20.60;48.40;;;;;;5093449;28;20028;-82
2021/06/17 02:29:46;;;;;;;5.60;2.40;;;20.70;48.30;;;;;;5093602;28;20020;-81
2021/06/17 02:32:19;;;;;;;4.55;2.20;;;20.70;48.20;;;;;;5094771;28;20028;-80
2021/06/17 02:34:47;;;;;;;2.60;2.08;;;20.90;48.20;;;;;;5094567;28;20047;-81
2021/06/17 02:37:15;;;;;;;2.63;2.10;;;20.80;47.50;;;;;;5094778;28;20016;-80
2021/06/17 02:39:41;;;;;;;4.15;1.85;;;20.90;47.50;;;;;;5094457;28;20031;-81
2021/06/17 02:42:07;;;;;;;5.55;1.77;;;20.80;46.80;;;;;;5094702;28;20032;-80
2021/06/17 02:44:34;;;;;;;2.70;1.80;;;20.70;47.20;;;;;;5094539;28;20062;-80
2021/06/17 02:46:59;;;;;;;7.07;2.13;;;20.70;47.70;;;;;;5094473;28;20056;-80
2021/06/17 02:49:25;;;;;;;3.10;1.85;;;20.80;47.80;;;;;;5094655;28;20099;-83
2021/06/17 02:51:51;;;;;;;3.97;2.00;;;20.80;47.70;;;;;;5093345;28;20020;-81
2021/06/17 02:54:20;;;;;;;2.97;1.98;;;20.70;47.60;;;;;;5094432;28;20027;-81
2021/06/17 02:56:58;;;;;;;4.82;2.22;;;20.70;47.50;;;;;;5094573;28;20016;-81
2021/06/17 02:59:42;;;;;;;3.83;2.10;;;20.70;48.30;;;;;;5094349;28;20536;-81
2021/06/17 03:02:21;;;;;;;4.90;1.88;;;20.60;47.80;;;;;;5094373;28;20028;-82
2021/06/17 03:04:51;;;;;;;8.07;2.40;;;20.50;48.20;;;;;;5093513;28;20384;-81
2021/06/17 03:07:32;;;;;;;3.28;2.10;;;20.30;49.20;;;;;;5094360;28;20028;-81
2021/06/17 03:10:06;;;;;;;7.55;2.42;;;20.00;50.00;;;;;;5094501;28;20020;-83
2021/06/17 03:12:32;;;;;;;5.03;2.13;;;19.80;50.60;;;;;;5094435;28;20024;-81
2021/06/17 03:15:02;;;;;;;5.55;2.22;;;19.80;50.60;;;;;;5102048;28;20020;-77
2021/06/17 03:17:30;;;;;;;4.30;2.08;;;19.70;50.50;;;;;;5097241;28;20073;-79
2021/06/17 03:19:59;;;;;;;5.00;2.25;;;19.80;50.20;;;;;;5092886;28;20060;-79
2021/06/17 03:22:26;;;;;;;4.00;2.33;;;19.70;50.50;;;;;;5093953;28;20487;-78
2021/06/17 03:24:54;;;;;;;3.45;2.42;;;19.50;51.70;;;;;;5094052;28;20046;-80
2021/06/17 03:27:20;;;;;;;4.82;2.53;;;19.50;52.20;;;;;;5093787;28;20032;-79
2021/06/17 03:29:48;;;;;;;5.05;2.45;;;19.40;52.30;;;;;;5093892;28;20016;-79
2021/06/17 03:32:16;;;;;;;6.68;2.38;;;19.40;52.30;;;;;;5094244;28;20028;-80
2021/06/17 03:34:43;;;;;;;4.80;2.30;;;19.40;52.40;;;;;;5094370;28;20444;-83
2021/06/17 03:37:11;;;;;;;4.60;2.28;;;19.40;52.60;;;;;;5097129;28;20032;-79
2021/06/17 03:39:38;;;;;;;5.28;2.17;;;19.60;52.20;;;;;;5100313;28;20058;-80
2021/06/17 03:42:06;;;;;;;2.63;2.08;;;19.60;51.80;;;;;;5107916;28;20067;-80
2021/06/17 03:44:35;;;;;;;3.30;2.05;;;19.60;51.50;;;;;;5118709;28;20016;-81
2021/06/17 03:47:01;;;;;;;4.55;2.08;;;19.70;51.80;;;;;;5099178;28;20047;-81
2021/06/17 03:49:28;;;;;;;3.38;2.00;;;19.80;51.90;;;;;;5093522;28;20088;-80
2021/06/17 03:51:56;;;;;;;8.48;2.28;;;19.90;51.60;;;;;;5093265;28;20020;-80
2021/06/17 03:54:24;;;;;;;5.03;2.10;;;19.90;51.90;;;;;;5093398;28;20012;-79
2021/06/17 03:57:09;;;;;;;3.83;1.90;;;20.10;51.30;;;;;;5093322;28;20028;-79
2021/06/17 03:59:39;;;;;;;2.67;2.10;;;20.10;51.00;;;;;;5093469;28;20027;-80
2021/06/17 04:02:05;;;;;;;4.13;2.10;;;20.20;51.20;;;;;;5093245;28;20111;-81
2021/06/17 04:04:31;;;;;;;4.75;2.42;;;20.20;51.20;;;;;;5092083;28;20048;-81
2021/06/17 04:07:00;;;;;;;6.90;2.28;;;20.20;50.80;;;;;;5093137;28;20039;-81
2021/06/17 04:09:29;;;;;;;5.22;2.35;;;20.20;50.20;;;;;;5093337;28;20069;-80
2021/06/17 04:11:57;;;;;;;4.55;1.90;;;20.20;50.10;;;;;;5094207;28;20024;-81
2021/06/17 04:14:25;;;;;;;6.97;2.75;;;20.20;50.60;;;;;;5093734;28;20043;-80
2021/06/17 04:16:53;;;;;;;7.28;2.60;;;20.20;50.60;;;;;;5093728;28;20031;-81
2021/06/17 04:19:21;;;;;;;2.80;2.45;;;20.20;50.90;;;;;;5091770;28;20023;-80
2021/06/17 04:21:50;;;;;;;5.70;2.72;;;20.30;50.80;;;;;;5095450;28;20073;-80
2021/06/17 04:24:18;;;;;;;7.20;2.72;;;20.30;50.60;;;;;;5095134;28;20027;-80
2021/06/17 04:26:43;;;;;;;11.63;3.20;;;20.40;50.60;;;;;;5098779;28;20370;-80
2021/06/17 04:29:09;;;;;;;6.68;2.28;;;20.40;50.80;;;;;;5100480;28;20065;-80
2021/06/17 04:31:36;;;;;;;3.30;2.78;;;20.40;51.00;;;;;;5098906;28;20055;-80
2021/06/17 04:34:02;;;;;;;5.38;2.45;;;20.30;50.90;;;;;;5105940;28;20031;-80
2021/06/17 04:36:28;;;;;;;9.10;2.45;;;20.40;50.90;;;;;;5100680;28;20020;-80
2021/06/17 04:38:54;;;;;;;7.50;2.75;;;20.40;51.10;;;;;;5107959;28;20042;-80
2021/06/17 04:41:20;;;;;;;5.30;2.53;;;20.40;51.10;;;;;;5103673;28;20028;-80
2021/06/17 04:43:46;;;;;;;11.13;2.78;;;20.40;51.20;;;;;;5099955;28;20020;-80
2021/06/17 04:46:11;;;;;;;7.15;2.10;;;20.40;51.10;;;;;;5098979;28;20088;-79
2021/06/17 04:48:39;;;;;;;5.60;2.30;;;20.50;51.30;;;;;;5097868;28;20067;-79
2021/06/17 04:51:07;;;;;;;8.70;2.58;;;20.40;51.30;;;;;;5105884;28;20377;-78
2021/06/17 04:53:35;;;;;;;6.97;2.80;;;20.50;51.40;;;;;;5107314;28;20488;-79
2021/06/17 04:56:00;;;;;;;9.27;3.22;;;20.50;51.40;;;;;;5105496;28;20071;-79
2021/06/17 04:58:26;;;;;;;7.88;3.00;;;20.60;51.30;;;;;;5103277;28;20538;-78
2021/06/17 05:00:52;;;;;;;4.55;2.80;;;20.60;51.20;;;;;;5096976;28;20017;-80
2021/06/17 05:03:19;;;;;;;4.57;2.40;;;20.60;51.50;;;;;;5095953;28;20388;-82
2021/06/17 05:05:47;;;;;;;4.97;2.53;;;20.60;51.60;;;;;;5094829;28;20028;-81
2021/06/17 05:10:50;;;;;;;8.98;2.75;;;20.80;51.40;;;;;;5094420;28;20465;-82
2021/06/17 05:13:19;;;;;;;6.65;2.60;;;20.90;51.30;;;;;;5094406;28;20024;-82
2021/06/17 05:15:44;;;;;;;4.55;2.65;;;21.10;51.00;;;;;;5097085;28;20035;-81
2021/06/17 05:18:10;;;;;;;11.13;2.70;;;21.20;50.50;;;;;;5099158;28;20442;-81
2021/06/17 05:20:36;;;;;;;5.88;2.33;;;21.40;50.20;;;;;;5098229;28;20034;-81
2021/06/17 05:23:01;;;;;;;9.00;2.70;;;21.40;49.90;;;;;;5098663;28;20034;-82
2021/06/17 05:25:27;;;;;;;6.47;2.47;;;21.50;49.60;;;;;;5096835;28;20066;-83
2021/06/17 05:27:53;;;;;;;5.65;3.13;;;21.60;49.80;;;;;;5098065;28;20468;-81
2021/06/17 05:30:19;;;;;;;10.30;2.92;;;21.70;49.70;;;;;;5096617;28;20025;-82
2021/06/17 05:32:44;;;;;;;4.38;2.85;;;21.70;49.80;;;;;;5097621;28;20024;-82
2021/06/17 05:35:11;;;;;;;5.90;2.58;;;21.80;49.70;;;;;;5098148;28;20484;-80
2021/06/17 05:37:36;;;;;;;3.72;2.78;;;21.90;49.60;;;;;;5097803;28;20473;-82
2021/06/17 05:40:03;;;;;;;5.90;2.47;;;22.00;49.20;;;;;;5097981;28;20024;-78
2021/06/17 05:42:30;;;;;;;5.13;2.80;;;22.20;49.80;;;;;;5097176;28;20071;-77
2021/06/17 05:44:56;;;;;;;5.75;2.78;;;22.30;49.00;;;;;;5097206;28;20024;-77
2021/06/17 05:47:21;;;;;;;4.90;2.70;;;22.40;48.80;;;;;;5096185;28;20113;-77
2021/06/17 05:49:47;;;;;;;6.75;2.60;;;22.40;48.30;;;;;;5096932;28;20026;-78
2021/06/17 05:52:13;;;;;;;5.32;2.65;;;22.40;49.00;;;;;;5096928;28;20479;-77
2021/06/17 05:54:38;;;;;;;7.13;2.85;;;22.50;49.90;;;;;;5096678;28;20032;-77
2021/06/17 05:57:05;;;;;;;5.63;2.72;;;22.50;50.00;;;;;;5096870;28;20031;-77
2021/06/17 05:59:30;;;;;;;4.55;2.40;;;22.50;49.40;;;;;;5096401;28;20085;-77
2021/06/17 06:01:56;;;;;;;5.13;2.47;;;22.60;48.50;;;;;;5096459;28;20028;-77
2021/06/17 06:04:21;;;;;;;8.77;3.40;;;22.70;48.80;;;;;;5095633;28;20024;-77
2021/06/17 06:06:47;;;;;;;4.43;2.90;;;22.70;48.90;;;;;;5095710;28;20043;-78
2021/06/17 06:09:13;;;;;;;4.47;2.50;;;22.80;48.90;;;;;;5096016;28;20031;-79
2021/06/17 06:11:40;;;;;;;5.45;2.30;;;22.90;48.90;;;;;;5095899;28;20020;-78
2021/06/17 06:14:05;;;;;;;9.57;2.67;;;23.10;48.50;;;;;;5096070;28;20599;-79
2021/06/17 06:16:31;;;;;;;14.98;2.88;;;23.20;48.10;;;;;;5095731;28;20026;-79
2021/06/17 06:18:57;;;;;;;16.63;3.22;;;23.40;48.10;;;;;;5095318;28;20027;-78
2021/06/17 06:21:22;;;;;;;13.18;3.60;;;23.50;47.90;;;;;;5095432;28;20023;-77
2021/06/17 06:23:48;;;;;;;5.18;2.90;;;23.60;47.60;;;;;;5095465;28;20486;-77
2021/06/17 06:26:14;;;;;;;6.90;2.80;;;23.70;48.60;;;;;;5094807;28;20031;-78
2021/06/17 06:28:39;;;;;;;4.72;2.65;;;23.90;48.90;;;;;;5095259;28;20032;-77
2021/06/17 06:31:05;;;;;;;9.13;3.05;;;24.00;48.50;;;;;;5094833;28;20016;-78
2021/06/17 06:33:30;;;;;;;8.35;2.80;;;24.10;48.50;;;;;;5095270;28;20020;-77
2021/06/17 06:35:56;;;;;;;10.95;3.40;;;24.30;47.30;;;;;;5095064;28;20468;-78
2021/06/17 06:38:22;;;;;;;6.05;2.45;;;24.30;46.80;;;;;;5093783;28;20024;-78
2021/06/17 06:40:47;;;;;;;8.13;2.85;;;24.40;45.40;;;;;;5094947;28;20036;-79
2021/06/17 06:43:15;;;;;;;7.35;2.80;;;24.60;45.00;;;;;;5093796;28;20492;-78
2021/06/17 06:45:41;;;;;;;5.25;2.30;;;24.80;44.50;;;;;;5094785;28;20016;-79
2021/06/17 06:48:08;;;;;;;3.90;2.50;;;24.90;44.60;;;;;;5094561;28;20531;-78
2021/06/17 06:50:35;;;;;;;11.52;3.42;;;24.90;44.90;;;;;;5093375;28;20020;-78
2021/06/17 06:53:01;;;;;;;11.90;2.78;;;24.90;45.20;;;;;;5094775;28;20106;-77
2021/06/17 06:55:26;;;;;;;6.32;2.83;;;25.10;44.60;;;;;;5094902;28;20146;-78
2021/06/17 06:57:52;;;;;;;10.85;3.05;;;25.20;44.30;;;;;;5091341;28;20499;-77
2021/06/17 07:00:18;;;;;;;3.28;2.30;;;25.30;44.10;;;;;;5097317;28;20008;-78
2021/06/17 07:02:44;;;;;;;9.02;2.65;;;25.40;43.90;;;;;;5109946;28;20013;-80
2021/06/17 07:05:10;;;;;;;7.35;2.75;;;25.50;44.50;;;;;;5090440;28;20028;-78
2021/06/17 07:07:37;;;;;;;4.13;2.58;;;25.50;43.70;;;;;;5094427;28;20036;-80
2021/06/17 07:10:04;;;;;;;9.23;3.63;;;25.70;43.10;;;;;;5094426;28;20138;-78
2021/06/17 07:12:29;;;;;;;12.40;3.22;;;25.90;42.50;;;;;;5094499;28;20028;-83
2021/06/17 07:14:55;;;;;;;4.97;2.50;;;26.10;42.20;;;;;;5093495;28;20461;-84
2021/06/17 07:17:20;;;;;;;9.68;3.90;;;26.10;42.40;;;;;;5094711;28;20040;-85
2021/06/17 07:19:46;;;;;;;8.45;3.15;;;26.20;42.70;;;;;;5095035;28;20075;-84
2021/06/17 07:22:11;;;;;;;4.57;2.78;;;26.30;42.80;;;;;;5094465;28;20028;-85
2021/06/17 07:24:37;;;;;;;5.70;2.90;;;26.30;42.90;;;;;;5094399;28;20135;-79
2021/06/17 07:27:04;;;;;;;11.55;3.85;;;26.50;42.90;;;;;;5094053;28;20089;-80
2021/06/17 07:29:30;;;;;;;7.75;3.70;;;26.80;42.30;;;;;;5093908;28;20028;-81
2021/06/17 07:31:56;;;;;;;6.38;2.80;;;27.00;43.40;;;;;;5093867;28;20024;-79
2021/06/17 07:34:22;;;;;;;9.10;3.10;;;27.10;42.10;;;;;;5093991;28;20102;-80
2021/06/17 07:36:48;;;;;;;10.18;3.08;;;27.30;41.90;;;;;;5093638;28;20024;-80
2021/06/17 07:39:15;;;;;;;9.57;2.80;;;27.30;41.50;;;;;;5093208;28;20028;-80
2021/06/17 07:41:41;;;;;;;10.98;3.03;;;27.50;41.30;;;;;;5093762;28;20012;-80
2021/06/17 07:44:08;;;;;;;12.35;3.60;;;27.50;41.00;;;;;;5093971;28;20078;-81
2021/06/17 07:46:34;;;;;;;8.85;3.05;;;27.60;41.80;;;;;;5092139;28;20046;-80
2021/06/17 07:49:00;;;;;;;8.07;2.90;;;27.70;41.40;;;;;;5093626;28;20027;-78
2021/06/17 07:51:27;;;;;;;8.88;3.00;;;27.80;41.10;;;;;;5093327;28;20027;-79
2021/06/17 07:53:53;;;;;;;11.90;3.15;;;28.00;40.80;;;;;;5093413;28;20052;-78
2021/06/17 07:56:19;;;;;;;13.45;3.35;;;28.10;40.00;;;;;;5093473;28;20089;-79
2021/06/17 07:58:46;;;;;;;10.27;3.25;;;28.00;40.40;;;;;;5093459;28;20024;-79
2021/06/17 08:01:12;;;;;;;8.95;2.85;;;28.00;39.50;;;;;;5092212;28;20028;-78
2021/06/17 08:03:37;;;;;;;12.80;3.22;;;28.00;39.00;;;;;;5093426;28;20362;-79
2021/06/17 08:06:03;;;;;;;14.60;3.17;;;28.10;39.10;;;;;;5093380;28;20035;-79
2021/06/17 08:08:30;;;;;;;12.43;3.65;;;28.20;38.80;;;;;;5093082;28;20442;-79
2021/06/17 08:10:56;;;;;;;8.07;3.17;;;28.30;39.10;;;;;;5093054;28;20031;-79
2021/06/17 08:13:21;;;;;;;12.48;3.72;;;28.50;39.30;;;;;;5093455;28;20024;-79
2021/06/17 08:15:48;;;;;;;12.13;3.33;;;28.60;39.10;;;;;;5093049;28;20028;-79
2021/06/17 08:18:14;;;;;;;11.15;3.67;;;28.70;37.90;;;;;;5093082;28;20072;-80
2021/06/17 08:20:42;;;;;;;11.75;2.75;;;28.70;37.80;;;;;;5092769;28;20057;-79
2021/06/17 08:23:08;;;;;;;8.25;3.05;;;28.80;37.90;;;;;;5092778;28;20410;-79
2021/06/17 08:25:34;;;;;;;6.25;2.50;;;28.80;37.20;;;;;;5093042;28;20027;-81
2021/06/17 08:28:04;;;;;;;6.10;2.30;;;29.00;36.90;;;;;;5093674;28;20028;-83
2021/06/17 08:30:31;;;;;;;7.05;2.10;;;29.00;36.40;;;;;;5093275;28;20024;-82
2021/06/17 08:32:56;;;;;;;8.55;4.25;;;29.10;35.20;;;;;;5095144;28;20058;-80
2021/06/17 08:35:22;;;;;;;5.78;4.50;;;29.20;35.20;;;;;;5098011;28;20020;-79
2021/06/17 08:37:47;;;;;;;4.20;2.58;;;29.30;35.10;;;;;;5095365;28;20412;-81
2021/06/17 08:40:13;;;;;;;6.47;2.50;;;29.40;35.20;;;;;;5096068;28;20607;-80
2021/06/17 08:42:39;;;;;;;8.20;2.13;;;29.50;35.40;;;;;;5097434;28;20016;-80
2021/06/17 08:45:09;;;;;;;8.77;2.45;;;29.50;34.20;;;;;;5094297;28;20536;-80
2021/06/17 08:47:36;;;;;;;9.10;2.53;;;29.60;34.30;;;;;;5092990;28;20048;-80
2021/06/17 08:50:05;;;;;;;6.05;2.40;;;29.60;33.80;;;;;;5096096;28;20461;-80
2021/06/17 08:52:33;;;;;;;4.50;2.42;;;29.70;33.40;;;;;;5096957;28;20032;-81
2021/06/17 08:55:15;;;;;;;8.05;2.45;;;29.80;32.90;;;;;;5096917;28;20103;-81
2021/06/17 08:57:42;;;;;;;5.25;2.42;;;29.80;32.70;;;;;;5097005;28;20411;-80
2021/06/17 09:00:19;;;;;;;6.25;2.42;;;29.70;32.30;;;;;;5096927;28;20039;-81
2021/06/17 09:02:56;;;;;;;6.13;2.33;;;29.60;32.10;;;;;;5096765;28;20035;-80
2021/06/17 09:05:23;;;;;;;4.72;2.08;;;29.40;31.90;;;;;;5096614;28;20028;-79
2021/06/17 09:07:50;;;;;;;7.75;2.15;;;29.30;31.70;;;;;;5096915;28;20049;-80
2021/06/17 09:10:16;;;;;;;4.65;1.90;;;29.30;31.50;;;;;;5096740;28;20017;-79
2021/06/17 09:12:47;;;;;;;5.43;1.77;;;29.30;31.90;;;;;;5096757;28;20028;-79
2021/06/17 09:15:13;;;;;;;7.43;2.00;;;29.30;31.20;;;;;;5096296;28;20051;-79
2021/06/17 09:17:39;;;;;;;3.92;2.05;;;29.50;31.60;;;;;;5095816;28;20025;-78
2021/06/17 09:20:07;;;;;;;9.85;2.53;;;29.50;31.90;;;;;;5096154;28;20103;-79
2021/06/17 09:22:35;;;;;;;4.75;2.30;;;29.60;32.10;;;;;;5095430;28;20020;-79
2021/06/17 09:25:02;;;;;;;5.70;2.22;;;29.70;32.20;;;;;;5096443;28;20314;-79
2021/06/17 09:27:32;;;;;;;4.32;2.38;;;29.70;31.60;;;;;;5096251;28;20035;-79
2021/06/17 09:30:10;;;;;;;5.35;2.08;;;29.70;30.60;;;;;;5094967;28;20028;-79
2021/06/17 09:32:41;;;;;;;8.45;2.08;;;29.80;30.80;;;;;;5096340;28;20028;-80
2021/06/17 09:35:21;;;;;;;3.47;2.03;;;29.80;30.10;;;;;;5096186;28;20445;-80
2021/06/17 09:37:47;;;;;;;4.13;2.40;;;30.00;30.20;;;;;;5096064;28;20423;-79
2021/06/17 09:40:28;;;;;;;4.22;2.30;;;30.00;31.40;;;;;;5095456;28;20024;-80
2021/06/17 09:43:14;;;;;;;6.47;2.28;;;29.90;31.30;;;;;;5096306;28;20099;-80
2021/06/17 09:45:48;;;;;;;4.80;2.40;;;29.90;31.70;;;;;;5094853;28;20050;-81
2021/06/17 09:48:34;;;;;;;3.85;2.20;;;30.00;32.80;;;;;;5094776;28;20473;-79
2021/06/17 09:51:22;;;;;;;3.92;2.83;;;30.00;31.80;;;;;;5096074;28;20017;-79
2021/06/17 09:53:48;;;;;;;12.95;2.80;;;30.00;31.10;;;;;;5096037;28;20028;-79
2021/06/17 09:56:24;;;;;;;5.10;2.50;;;29.90;30.50;;;;;;5096168;28;20020;-79
2021/06/17 09:58:50;;;;;;;4.32;2.40;;;30.00;32.00;;;;;;5095769;28;20032;-79
2021/06/17 10:01:30;;;;;;;4.38;2.33;;;30.10;32.30;;;;;;5095374;28;20349;-80
2021/06/17 10:04:18;;;;;;;5.25;2.90;;;30.10;31.50;;;;;;5095878;28;20038;-80
2021/06/17 10:06:44;;;;;;;4.72;2.53;;;30.10;30.60;;;;;;5096523;28;20043;-80
2021/06/17 10:09:11;;;;;;;3.75;2.80;;;30.20;29.80;;;;;;5095709;28;20016;-80
2021/06/17 10:11:38;;;;;;;4.47;2.80;;;30.30;30.60;;;;;;5096207;28;20020;-83
2021/06/17 10:14:05;;;;;;;6.63;2.97;;;30.40;30.30;;;;;;5095895;28;20020;-80
2021/06/17 10:16:32;;;;;;;6.03;3.15;;;30.40;30.40;;;;;;5095427;28;20028;-77
2021/06/17 10:18:59;;;;;;;5.07;2.88;;;30.50;31.50;;;;;;5095230;28;20035;-77
2021/06/17 10:21:25;;;;;;;4.18;2.53;;;30.60;30.80;;;;;;5095171;28;20025;-78
2021/06/17 10:23:51;;;;;;;5.18;3.08;;;30.70;31.10;;;;;;5094986;28;20020;-78
2021/06/17 10:26:22;;;;;;;5.18;2.45;;;30.90;30.30;;;;;;5095086;28;20025;-79
2021/06/17 10:28:50;;;;;;;6.82;2.45;;;30.70;30.00;;;;;;5095010;28;20107;-77
2021/06/17 10:31:39;;;;;;;5.10;2.53;;;30.80;29.80;;;;;;5095777;28;20020;-78
2021/06/17 10:34:22;;;;;;;5.32;2.78;;;31.10;29.90;;;;;;5095184;28;20020;-78
2021/06/17 10:37:09;;;;;;;3.47;2.63;;;31.30;29.20;;;;;;5095095;28;20396;-78
2021/06/17 10:39:49;;;;;;;4.55;2.50;;;31.40;28.40;;;;;;5093983;28;20423;-77
2021/06/17 10:42:29;;;;;;;4.47;2.53;;;31.70;28.30;;;;;;5093862;28;20031;-78
2021/06/17 10:44:56;;;;;;;4.85;2.70;;;32.00;28.10;;;;;;5094481;28;20024;-75
2021/06/17 10:47:47;;;;;;;3.17;2.38;;;32.10;28.00;;;;;;5093403;28;20072;-75
2021/06/17 10:50:16;;;;;;;3.38;2.58;;;32.30;27.30;;;;;;5074224;28;20032;-75
2021/06/17 10:52:43;;;;;;;3.75;2.55;;;32.30;28.00;;;;;;5059225;28;20078;-76
2021/06/17 10:55:17;;;;;;;3.38;2.25;;;32.30;27.50;;;;;;5057130;28;20025;-76
2021/06/17 10:57:44;;;;;;;3.50;2.95;;;32.50;27.40;;;;;;5057469;28;20025;-78
2021/06/17 11:00:42;;;;;;;3.50;2.50;;;32.80;27.20;;;;;;5055764;28;20013;-77
2021/06/17 11:03:08;;;;;;;4.07;2.63;;;33.10;27.40;;;;;;5050774;28;20441;-75
2021/06/17 11:05:36;;;;;;;4.20;2.78;;;33.00;26.00;;;;;;5059263;28;20028;-76
2021/06/17 11:08:13;;;;;;;2.70;2.50;;;33.20;26.70;;;;;;5056787;28;20415;-75
2021/06/17 11:10:59;;;;;;;5.25;2.70;;;33.50;27.60;;;;;;5055039;28;20087;-76
2021/06/17 11:13:36;;;;;;;3.55;2.67;;;33.30;26.10;;;;;;5053208;28;20048;-76
2021/06/17 11:16:04;;;;;;;3.35;2.88;;;33.30;26.70;;;;;;5054171;28;20017;-76
2021/06/17 11:19:06;;;;;;;3.28;2.40;;;33.20;26.40;;;;;;5052754;28;20359;-77
2021/06/17 11:21:34;;;;;;;3.92;2.20;;;33.30;27.20;;;;;;5054290;28;20466;-77
2021/06/17 11:24:21;;;;;;;3.72;2.30;;;33.70;27.20;;;;;;5054099;28;20029;-77
2021/06/17 11:26:49;;;;;;;2.58;2.10;;;34.00;27.00;;;;;;5053957;28;20032;-78
2021/06/17 11:29:16;;;;;;;3.35;2.50;;;34.00;26.00;;;;;;5053805;28;20470;-78
2021/06/17 11:31:44;;;;;;;4.35;2.50;;;34.00;26.10;;;;;;5054218;28;20017;-79
2021/06/17 11:34:11;;;;;;;4.75;2.50;;;34.10;26.40;;;;;;5052439;28;20056;-78
2021/06/17 11:36:52;;;;;;;5.32;3.03;;;34.00;25.70;;;;;;5053752;28;20021;-78
2021/06/17 11:39:22;;;;;;;7.53;3.00;;;34.00;26.30;;;;;;5053631;28;20070;-78
2021/06/17 11:41:48;;;;;;;2.72;2.30;;;34.10;26.20;;;;;;5053642;28;20061;-78
2021/06/17 11:44:17;;;;;;;4.85;2.53;;;34.30;26.20;;;;;;5053491;28;20116;-78
2021/06/17 11:46:46;;;;;;;2.97;2.47;;;34.40;26.20;;;;;;5053381;28;20044;-78
2021/06/17 11:49:12;;;;;;;2.80;2.30;;;34.40;25.90;;;;;;5053624;28;20025;-78
2021/06/17 11:51:41;;;;;;;4.20;2.58;;;34.50;25.50;;;;;;5053207;28;20536;-77
2021/06/17 11:54:07;;;;;;;4.75;2.35;;;34.50;25.50;;;;;;5053419;28;20021;-77
2021/06/17 11:56:33;;;;;;;4.97;2.47;;;34.60;24.80;;;;;;5054026;28;20025;-77
2021/06/17 11:59:22;;;;;;;2.85;2.20;;;34.70;25.40;;;;;;5053149;28;20031;-77
2021/06/17 12:02:15;;;;;;;3.38;2.13;;;34.70;24.70;;;;;;5053185;28;20025;-78
2021/06/17 12:05:03;;;;;;;4.43;2.65;;;34.80;24.40;;;;;;5053263;28;20013;-77
2021/06/17 12:07:33;;;;;;;5.68;2.38;;;35.00;25.60;;;;;;5044221;28;20041;-93
2021/06/17 12:10:26;;;;;;;3.15;2.40;;;35.00;24.80;;;;;;5053978;28;20039;-78
2021/06/17 12:13:00;;;;;;;4.97;2.30;;;35.10;24.40;;;;;;5050185;28;20029;-77
2021/06/17 12:15:28;;;;;;;4.85;2.08;;;35.20;24.00;;;;;;5052947;28;20099;-78
2021/06/17 12:17:58;;;;;;;4.32;2.70;;;35.30;23.40;;;;;;5052768;28;20536;-77
2021/06/17 12:20:30;;;;;;;3.08;2.50;;;35.40;23.20;;;;;;5052680;28;20481;-77
2021/06/17 12:22:56;;;;;;;2.53;2.20;;;35.50;22.70;;;;;;5052636;28;20041;-79
2021/06/17 12:25:26;;;;;;;3.97;2.28;;;35.60;22.10;;;;;;5053031;28;20485;-83
2021/06/17 12:27:53;;;;;;;5.07;2.35;;;35.70;22.00;;;;;;5053409;28;20493;-84
2021/06/17 12:30:30;;;;;;;5.32;2.50;;;35.40;21.80;;;;;;5053372;28;20107;-85
2021/06/17 12:33:20;;;;;;;6.03;2.55;;;35.40;22.00;;;;;;5053317;28;20021;-86
2021/06/17 12:35:50;;;;;;;5.53;3.00;;;35.50;21.70;;;;;;5053363;28;20096;-84
2021/06/17 12:38:24;;;;;;;7.07;2.45;;;35.70;21.50;;;;;;5051786;28;20382;-78
2021/06/17 12:40:50;;;;;;;6.30;2.30;;;35.70;21.80;;;;;;5052846;28;20035;-77
2021/06/17 12:43:21;;;;;;;5.88;2.25;;;35.60;21.00;;;;;;5052697;28;20029;-78
2021/06/17 12:46:01;;;;;;;3.97;2.30;;;35.40;21.20;;;;;;5052243;28;20048;-77
2021/06/17 12:54:23;;;;;;;5.65;2.35;;;36.20;22.30;;;;;;5052670;28;20039;-92
2021/06/17 12:56:52;;;;;;;;;;;36.30;21.00;;;;;;5051526;28;20124;-79
2021/06/17 12:59:34;;;;;;;6.40;2.70;;;36.20;20.30;;;;;;5051249;28;19912;-83
2021/06/17 13:02:00;;;;;;;6.55;2.50;;;35.90;20.20;;;;;;5052771;28;20087;-85
2021/06/17 13:04:25;;;;;;;3.10;2.53;;;35.90;20.00;;;;;;5051516;28;20021;-86